Time;durP1;ratioP1;P1;durP2;ratioP2;P2;SDS_P1;SDS_P2;PMS_P1;PMS_P2;Temp;Humidity;BMP_temperature;BMP_pressure;BME280_temperature;BME280_humidity;BME280_pressure;Samples;Min_cycle;Max_cycle;Signal;HPM_P1;HPM_P2
2022/12/30 00:04:49;;;;;;;56.60;33.40;;;;;;;;;;10099531;28;20057;-68
2022/12/30 00:09:43;;;;;;;49.90;27.20;;;;;;;;;;10099280;28;20095;-68
2022/12/30 00:35:27;;;;;;;47.45;28.30;;;;;;;;;;10103282;28;20048;-67
2022/12/30 00:40:22;;;;;;;50.67;27.67;;;;;;;;;;10104797;28;20140;-68
2022/12/30 00:45:16;;;;;;;52.83;31.15;;;;;;;;;;10103193;28;20072;-68
2022/12/30 01:00:34;;;;;;;51.42;28.00;;;;;;;;;;10109344;28;20053;-68
2022/12/30 01:05:27;;;;;;;48.95;27.48;;;;;;;;;;10110437;28;20203;-68
2022/12/30 01:10:21;;;;;;;54.35;27.35;;;;;;;;;;10109621;28;20505;-68
2022/12/30 01:15:16;;;;;;;54.30;28.90;;;;;;;;;;10108557;28;20056;-67
2022/12/30 01:20:11;;;;;;;49.67;29.30;;;;;;;;;;10109862;28;20049;-67
2022/12/30 01:25:05;;;;;;;54.10;29.13;;;;;;;;;;10108708;28;20060;-67
2022/12/30 01:29:59;;;;;;;53.05;31.30;;;;;;;;;;10108385;28;20082;-67
2022/12/30 01:34:54;;;;;;;54.55;29.38;;;;;;;;;;10109227;28;20501;-69
2022/12/30 01:39:47;;;;;;;53.42;29.85;;;;;;;;;;10107568;28;20056;-68
2022/12/30 01:45:18;;;;;;;65.75;28.77;;;;;;;;;;10108691;28;20048;-68
2022/12/30 01:50:11;;;;;;;57.30;31.33;;;;;;;;;;10108230;28;20052;-67
2022/12/30 01:55:10;;;;;;;60.60;30.73;;;;;;;;;;10107651;28;20081;-67
2022/12/30 02:00:07;;;;;;;55.03;28.23;;;;;;;;;;10105776;28;20049;-68
2022/12/30 02:05:05;;;;;;;60.65;29.45;;;;;;;;;;10106003;28;20532;-69
2022/12/30 02:09:59;;;;;;;62.50;32.40;;;;;;;;;;10101604;28;20135;-68
2022/12/30 02:14:55;;;;;;;51.72;30.20;;;;;;;;;;10107103;28;20045;-68
2022/12/30 02:20:19;;;;;;;57.83;29.42;;;;;;;;;;10106496;28;20053;-68
2022/12/30 02:25:47;;;;;;;63.67;31.30;;;;;;;;;;10102157;28;20049;-68
2022/12/30 02:31:17;;;;;;;61.42;32.08;;;;;;;;;;10106629;28;20045;-68
2022/12/30 02:36:25;;;;;;;62.40;33.03;;;;;;;;;;10106384;28;20048;-68
2022/12/30 02:46:59;;;;;;;56.88;30.75;;;;;;;;;;10097950;28;20131;-68
2022/12/30 02:57:21;;;;;;;57.90;31.48;;;;;;;;;;10105803;28;20048;-68
2022/12/30 03:07:50;;;;;;;56.10;31.45;;;;;;;;;;10105680;28;19921;-68
2022/12/30 03:12:58;;;;;;;54.92;29.67;;;;;;;;;;10104986;28;20044;-68
2022/12/30 03:17:53;;;;;;;57.95;25.83;;;;;;;;;;10094608;28;20493;-68
2022/12/30 03:28:00;;;;;;;54.15;29.08;;;;;;;;;;10102073;28;20051;-68
2022/12/30 03:32:53;;;;;;;52.42;29.05;;;;;;;;;;10103369;28;20478;-68
2022/12/30 03:37:52;;;;;;;63.63;29.90;;;;;;;;;;10099017;28;20056;-68
2022/12/30 03:42:47;;;;;;;63.43;32.23;;;;;;;;;;10087479;28;20063;-69
2022/12/30 03:47:41;;;;;;;53.22;30.05;;;;;;;;;;10087816;28;20060;-69
2022/12/30 03:52:35;;;;;;;56.40;28.35;;;;;;;;;;10104470;28;20053;-69
2022/12/30 03:57:29;;;;;;;70.05;34.35;;;;;;;;;;10104781;28;20061;-69
2022/12/30 04:02:22;;;;;;;59.65;30.58;;;;;;;;;;10106333;28;20412;-68
2022/12/30 04:07:16;;;;;;;76.35;36.38;;;;;;;;;;10109765;28;20055;-68
2022/12/30 04:12:09;;;;;;;78.30;31.45;;;;;;;;;;10111097;28;20049;-68
2022/12/30 04:17:03;;;;;;;68.28;33.70;;;;;;;;;;10110853;28;20065;-68
2022/12/30 04:21:56;;;;;;;80.55;38.53;;;;;;;;;;10111350;28;20075;-69
2022/12/30 04:26:50;;;;;;;75.57;40.53;;;;;;;;;;10111754;28;20532;-68
2022/12/30 04:31:43;;;;;;;79.18;39.17;;;;;;;;;;10110608;28;20052;-68
2022/12/30 04:36:37;;;;;;;67.35;38.47;;;;;;;;;;10111058;28;20045;-69
2022/12/30 04:41:31;;;;;;;63.58;38.50;;;;;;;;;;10105711;28;20040;-68
2022/12/30 04:46:25;;;;;;;65.50;41.72;;;;;;;;;;10108319;28;20493;-68
2022/12/30 04:51:18;;;;;;;65.72;40.50;;;;;;;;;;10124880;28;20147;-69
2022/12/30 04:56:12;;;;;;;65.45;42.03;;;;;;;;;;10115662;28;20065;-69
2022/12/30 05:01:06;;;;;;;64.47;39.40;;;;;;;;;;10110264;28;20047;-68
2022/12/30 05:06:00;;;;;;;70.82;42.55;;;;;;;;;;10115836;28;20523;-68
2022/12/30 05:10:53;;;;;;;59.35;38.90;;;;;;;;;;10112975;28;20040;-69
2022/12/30 05:15:47;;;;;;;79.05;44.05;;;;;;;;;;10116680;28;20048;-69
2022/12/30 05:20:41;;;;;;;68.65;39.65;;;;;;;;;;10094294;28;20079;-69
2022/12/30 05:30:46;;;;;;;78.47;43.17;;;;;;;;;;10108752;28;20171;-68
2022/12/30 05:35:41;;;;;;;97.57;43.38;;;;;;;;;;10116068;28;20506;-69
2022/12/30 05:40:35;;;;;;;70.72;40.03;;;;;;;;;;10118627;28;20053;-69
2022/12/30 05:45:28;;;;;;;74.00;43.50;;;;;;;;;;10126114;28;20504;-69
2022/12/30 05:50:23;;;;;;;67.88;41.50;;;;;;;;;;10109823;28;20140;-70
2022/12/30 05:55:20;;;;;;;71.80;41.40;;;;;;;;;;10118631;28;20131;-69
2022/12/30 06:00:22;;;;;;;95.85;44.88;;;;;;;;;;10112750;28;20053;-69
2022/12/30 06:05:16;;;;;;;71.70;36.42;;;;;;;;;;10099428;28;20084;-69
2022/12/30 06:10:10;;;;;;;66.00;35.50;;;;;;;;;;10099977;28;20069;-68
2022/12/30 06:15:06;;;;;;;71.57;30.98;;;;;;;;;;10099746;28;20049;-68
2022/12/30 06:20:00;;;;;;;63.08;30.50;;;;;;;;;;10102898;28;20057;-68
2022/12/30 06:24:53;;;;;;;69.75;33.88;;;;;;;;;;10104650;28;20143;-68
2022/12/30 06:29:48;;;;;;;63.85;33.75;;;;;;;;;;10108069;28;20068;-69
2022/12/30 06:34:42;;;;;;;60.35;32.72;;;;;;;;;;10105380;28;20424;-68
2022/12/30 06:39:36;;;;;;;65.60;37.35;;;;;;;;;;10103061;28;20060;-69
2022/12/30 06:44:30;;;;;;;65.53;36.03;;;;;;;;;;10101593;28;20057;-76
2022/12/30 06:49:23;;;;;;;66.70;44.90;;;;;;;;;;10104762;28;20049;-74
2022/12/30 06:54:17;;;;;;;70.68;43.03;;;;;;;;;;10126077;28;20482;-70
2022/12/30 06:59:11;;;;;;;73.80;42.97;;;;;;;;;;10113140;28;20045;-68
2022/12/30 07:04:04;;;;;;;64.45;44.70;;;;;;;;;;10111485;28;20045;-69
2022/12/30 07:08:59;;;;;;;72.43;43.45;;;;;;;;;;10116195;28;20048;-70
2022/12/30 07:13:51;;;;;;;72.88;46.33;;;;;;;;;;10129330;28;20044;-70
2022/12/30 07:18:46;;;;;;;74.68;48.83;;;;;;;;;;10130301;28;20044;-68
2022/12/30 07:23:40;;;;;;;79.03;51.03;;;;;;;;;;10123545;28;20136;-67
2022/12/30 07:28:34;;;;;;;80.38;50.10;;;;;;;;;;10134564;28;20037;-67
2022/12/30 07:33:28;;;;;;;70.65;47.97;;;;;;;;;;10138052;28;20040;-68
2022/12/30 07:38:22;;;;;;;70.78;44.25;;;;;;;;;;10136986;28;20439;-68
2022/12/30 07:43:16;;;;;;;58.72;41.10;;;;;;;;;;10143538;28;20066;-67
2022/12/30 07:48:10;;;;;;;57.97;42.58;;;;;;;;;;10138680;28;20194;-67
2022/12/30 07:53:03;;;;;;;55.10;40.40;;;;;;;;;;10127743;28;20107;-68
2022/12/30 07:57:57;;;;;;;63.58;42.05;;;;;;;;;;10129265;28;20563;-65
2022/12/30 08:02:52;;;;;;;59.67;42.45;;;;;;;;;;10125038;28;20045;-68
2022/12/30 08:07:46;;;;;;;54.20;40.60;;;;;;;;;;10124374;28;20057;-67
2022/12/30 08:12:40;;;;;;;59.63;41.95;;;;;;;;;;10137270;28;20048;-69
2022/12/30 08:17:33;;;;;;;51.72;39.53;;;;;;;;;;10132404;28;20045;-69
2022/12/30 08:22:27;;;;;;;54.65;41.42;;;;;;;;;;10122975;28;20515;-69
2022/12/30 08:27:20;;;;;;;62.50;43.05;;;;;;;;;;10120685;28;20044;-68
2022/12/30 08:32:12;;;;;;;57.47;41.72;;;;;;;;;;10120446;28;20094;-68
2022/12/30 08:37:06;;;;;;;68.80;44.10;;;;;;;;;;10133460;28;20056;-68
2022/12/30 08:42:00;;;;;;;62.95;42.17;;;;;;;;;;10127577;28;20462;-67
2022/12/30 08:46:55;;;;;;;65.72;43.85;;;;;;;;;;10132935;28;20040;-68
2022/12/30 08:51:49;;;;;;;70.85;47.33;;;;;;;;;;10121503;28;20084;-68
2022/12/30 08:56:42;;;;;;;66.95;43.95;;;;;;;;;;10116758;28;20045;-70
2022/12/30 09:01:43;;;;;;;66.18;42.30;;;;;;;;;;10124223;28;20052;-69
2022/12/30 09:06:39;;;;;;;64.03;38.72;;;;;;;;;;10124187;28;20053;-69
2022/12/30 09:11:34;;;;;;;55.88;37.53;;;;;;;;;;10108372;28;20135;-69
2022/12/30 09:16:29;;;;;;;46.58;35.42;;;;;;;;;;10111673;28;20079;-69
2022/12/30 09:21:24;;;;;;;50.97;36.83;;;;;;;;;;10110664;28;20055;-66
2022/12/30 09:26:20;;;;;;;60.63;40.17;;;;;;;;;;10123936;28;20075;-71
2022/12/30 09:31:14;;;;;;;63.47;40.30;;;;;;;;;;10113417;28;20044;-64
2022/12/30 09:36:09;;;;;;;52.72;36.78;;;;;;;;;;10120085;28;20082;-68
2022/12/30 09:41:05;;;;;;;53.33;37.08;;;;;;;;;;10106999;28;20037;-64
2022/12/30 09:46:54;;;;;;;45.60;34.30;;;;;;;;;;10116124;28;20127;-69
2022/12/30 09:51:59;;;;;;;43.63;35.00;;;;;;;;;;10126755;28;20110;-66
2022/12/30 09:56:57;;;;;;;43.88;35.88;;;;;;;;;;10126745;28;20082;-65
2022/12/30 10:01:56;;;;;;;46.03;33.45;;;;;;;;;;10077095;28;20490;-65
2022/12/30 10:06:55;;;;;;;42.50;32.22;;;;;;;;;;10102243;28;20127;-65
2022/12/30 10:12:11;;;;;;;37.85;31.75;;;;;;;;;;10113356;28;20056;-65
2022/12/30 10:17:22;;;;;;;42.55;32.08;;;;;;;;;;10108154;28;20052;-65
2022/12/30 10:22:27;;;;;;;39.00;31.95;;;;;;;;;;10132290;28;20382;-64
2022/12/30 10:27:28;;;;;;;41.45;30.88;;;;;;;;;;10128319;28;20045;-67
2022/12/30 10:32:30;;;;;;;43.28;32.05;;;;;;;;;;10107191;28;20145;-62
2022/12/30 10:37:31;;;;;;;38.67;28.63;;;;;;;;;;10117460;28;20056;-71
2022/12/30 10:42:45;;;;;;;37.92;29.20;;;;;;;;;;10139863;28;20053;-65
2022/12/30 10:48:18;;;;;;;41.95;31.30;;;;;;;;;;10106644;28;20052;-66
2022/12/30 10:53:34;;;;;;;33.50;29.00;;;;;;;;;;10110107;28;20044;-65
2022/12/30 10:58:41;;;;;;;39.92;31.98;;;;;;;;;;10104379;28;20140;-66
2022/12/30 11:03:43;;;;;;;31.88;26.17;;;;;;;;;;10090921;28;20052;-66
2022/12/30 11:09:12;;;;;;;29.15;26.00;;;;;;;;;;10099367;28;20060;-65
2022/12/30 11:14:47;;;;;;;29.88;25.00;;;;;;;;;;10100107;28;20052;-67
2022/12/30 11:19:40;;;;;;;32.63;24.55;;;;;;;;;;10110185;28;20045;-66
2022/12/30 11:24:57;;;;;;;28.98;24.77;;;;;;;;;;10101454;28;20045;-64
2022/12/30 11:29:50;;;;;;;26.20;23.08;;;;;;;;;;10105208;28;20053;-65
2022/12/30 11:34:44;;;;;;;24.13;21.60;;;;;;;;;;10101483;28;20049;-67
2022/12/30 11:40:17;;;;;;;25.10;22.42;;;;;;;;;;10110492;28;20044;-66
2022/12/30 11:45:53;;;;;;;25.50;21.70;;;;;;;;;;10123412;28;20061;-66
2022/12/30 11:50:52;;;;;;;26.48;22.83;;;;;;;;;;10107621;28;20049;-66
2022/12/30 11:56:04;;;;;;;24.75;22.02;;;;;;;;;;10105371;28;20041;-67
2022/12/30 12:01:21;;;;;;;24.35;21.85;;;;;;;;;;10109203;28;20048;-66
2022/12/30 12:06:16;;;;;;;24.05;21.58;;;;;;;;;;10103434;28;20079;-66
2022/12/30 12:11:17;;;;;;;22.55;19.40;;;;;;;;;;10108327;28;20048;-66
2022/12/30 12:16:15;;;;;;;20.55;18.50;;;;;;;;;;10109331;28;20077;-67
2022/12/30 12:21:24;;;;;;;21.27;19.27;;;;;;;;;;10125010;28;20049;-69
2022/12/30 12:26:24;;;;;;;20.50;18.48;;;;;;;;;;10105000;28;21456;-68
2022/12/30 12:31:33;;;;;;;18.90;17.05;;;;;;;;;;10123942;28;20433;-67
2022/12/30 12:36:45;;;;;;;18.80;16.92;;;;;;;;;;10126796;28;20044;-66
2022/12/30 12:42:02;;;;;;;23.65;21.45;;;;;;;;;;10119008;28;20132;-66
2022/12/30 12:47:17;;;;;;;21.35;19.25;;;;;;;;;;10109716;28;20071;-67
2022/12/30 12:52:52;;;;;;;21.15;19.08;;;;;;;;;;10123979;28;20048;-67
2022/12/30 12:58:08;;;;;;;20.83;18.80;;;;;;;;;;10003336;28;20101;-67
2022/12/30 13:03:24;;;;;;;20.02;18.00;;;;;;;;;;10118009;28;20052;-67
2022/12/30 13:08:30;;;;;;;21.38;19.23;;;;;;;;;;10098477;28;20509;-66
2022/12/30 13:13:46;;;;;;;22.30;20.10;;;;;;;;;;10110951;28;20049;-65
2022/12/30 13:18:44;;;;;;;21.35;19.15;;;;;;;;;;10121464;28;20044;-65
2022/12/30 13:23:50;;;;;;;21.00;19.00;;;;;;;;;;10137524;28;20053;-62
2022/12/30 13:28:48;;;;;;;22.73;20.33;;;;;;;;;;10134360;28;20128;-62
2022/12/30 13:33:58;;;;;;;20.50;18.50;;;;;;;;;;10093614;28;20049;-62
2022/12/30 13:39:11;;;;;;;21.25;19.05;;;;;;;;;;10108079;28;20065;-64
2022/12/30 13:44:10;;;;;;;21.70;19.52;;;;;;;;;;10102144;28;20539;-63
2022/12/30 13:49:06;;;;;;;21.05;19.00;;;;;;;;;;10099170;28;20090;-65
2022/12/30 13:54:14;;;;;;;23.33;20.83;;;;;;;;;;10114675;28;20056;-65
2022/12/30 13:59:27;;;;;;;21.95;19.65;;;;;;;;;;10116867;28;20045;-65
2022/12/30 14:04:33;;;;;;;21.65;19.40;;;;;;;;;;10112845;28;20056;-64
2022/12/30 14:09:35;;;;;;;23.00;20.63;;;;;;;;;;10105125;28;20045;-65
2022/12/30 14:14:42;;;;;;;21.40;18.27;;;;;;;;;;10129964;28;20047;-65
2022/12/30 14:19:41;;;;;;;21.38;19.17;;;;;;;;;;10118716;28;20803;-66
2022/12/30 14:24:37;;;;;;;19.42;17.38;;;;;;;;;;10122209;28;20045;-64
2022/12/30 14:29:34;;;;;;;18.88;16.98;;;;;;;;;;10133791;28;20478;-65
2022/12/30 14:34:36;;;;;;;18.10;16.27;;;;;;;;;;10138920;28;20082;-64
2022/12/30 14:39:30;;;;;;;20.02;17.42;;;;;;;;;;10111352;28;20552;-65
2022/12/30 14:44:32;;;;;;;18.85;16.83;;;;;;;;;;10118588;28;20448;-64
2022/12/30 14:49:31;;;;;;;19.13;17.23;;;;;;;;;;10123039;28;20063;-64
2022/12/30 14:54:33;;;;;;;22.88;19.90;;;;;;;;;;10128231;28;20135;-65
2022/12/30 14:59:27;;;;;;;21.00;18.83;;;;;;;;;;10126981;28;20044;-65
2022/12/30 15:04:19;;;;;;;19.05;17.15;;;;;;;;;;10123906;28;20056;-65
2022/12/30 15:09:18;;;;;;;20.60;17.92;;;;;;;;;;10120524;28;20044;-66
2022/12/30 15:14:16;;;;;;;23.30;18.88;;;;;;;;;;10126817;28;20398;-66
2022/12/30 15:19:22;;;;;;;21.00;17.88;;;;;;;;;;10103151;28;20551;-65
2022/12/30 15:24:17;;;;;;;25.52;20.98;;;;;;;;;;10118396;28;20044;-66
2022/12/30 15:29:20;;;;;;;21.65;18.70;;;;;;;;;;10121528;28;20057;-66
2022/12/30 15:34:19;;;;;;;23.92;18.83;;;;;;;;;;10122395;28;20509;-66
2022/12/30 15:39:15;;;;;;;23.17;19.55;;;;;;;;;;10117027;28;20072;-65
2022/12/30 15:44:13;;;;;;;22.40;19.98;;;;;;;;;;10118809;28;20052;-65
2022/12/30 15:49:18;;;;;;;22.58;20.20;;;;;;;;;;10108520;28;20385;-65
2022/12/30 15:54:40;;;;;;;22.73;20.17;;;;;;;;;;10127532;28;20057;-65
2022/12/30 15:59:55;;;;;;;25.88;21.67;;;;;;;;;;10114011;28;20056;-65
2022/12/30 16:04:48;;;;;;;23.08;19.90;;;;;;;;;;10109822;28;20048;-65
2022/12/30 16:09:46;;;;;;;26.05;21.30;;;;;;;;;;10140953;28;20072;-65
2022/12/30 16:14:41;;;;;;;22.40;19.85;;;;;;;;;;10143709;28;20056;-65
2022/12/30 16:19:44;;;;;;;32.40;27.17;;;;;;;;;;10140846;28;20060;-66
2022/12/30 16:24:38;;;;;;;31.33;27.00;;;;;;;;;;10143999;28;20440;-65
2022/12/30 16:29:34;;;;;;;36.30;30.33;;;;;;;;;;10144393;28;20064;-65
2022/12/30 16:34:28;;;;;;;30.92;27.60;;;;;;;;;;10135030;28;20045;-65
2022/12/30 16:39:22;;;;;;;28.63;23.75;;;;;;;;;;10142081;28;20071;-73
2022/12/30 16:44:19;;;;;;;29.08;24.45;;;;;;;;;;10142930;28;20044;-64
2022/12/30 16:49:13;;;;;;;30.83;26.58;;;;;;;;;;10131003;28;20044;-63
2022/12/30 16:54:12;;;;;;;29.50;21.13;;;;;;;;;;10134493;28;20056;-64
2022/12/30 16:59:06;;;;;;;;;;;;;;;;;;10136795;28;20044;-65
2022/12/30 17:04:05;;;;;;;28.40;21.95;;;;;;;;;;10120837;28;19927;-65
2022/12/30 17:08:59;;;;;;;40.40;30.98;;;;;;;;;;10120388;28;20048;-65
2022/12/30 17:13:55;;;;;;;28.65;23.73;;;;;;;;;;10139647;28;20068;-61
2022/12/30 17:18:49;;;;;;;31.98;26.25;;;;;;;;;;10114115;28;20053;-65
2022/12/30 17:23:45;;;;;;;33.83;25.83;;;;;;;;;;10113374;28;20508;-67
2022/12/30 17:28:39;;;;;;;40.40;34.15;;;;;;;;;;10098524;28;20056;-66
2022/12/30 17:33:32;;;;;;;29.25;24.58;;;;;;;;;;10099582;28;20580;-66
2022/12/30 17:38:26;;;;;;;30.88;24.50;;;;;;;;;;10122540;28;20052;-65
2022/12/30 17:43:21;;;;;;;30.75;23.45;;;;;;;;;;10112621;28;20049;-65
2022/12/30 17:48:17;;;;;;;32.75;25.23;;;;;;;;;;10117959;28;20140;-65
2022/12/30 17:53:13;;;;;;;28.25;21.70;;;;;;;;;;10086158;28;20049;-66
2022/12/30 17:58:07;;;;;;;26.15;19.90;;;;;;;;;;10108247;28;20094;-65
2022/12/30 18:03:00;;;;;;;24.13;18.88;;;;;;;;;;10110567;28;20417;-66
2022/12/30 18:07:54;;;;;;;25.60;19.65;;;;;;;;;;10110109;28;20432;-66
2022/12/30 18:12:49;;;;;;;27.77;20.40;;;;;;;;;;10122247;28;20116;-66
2022/12/30 18:17:43;;;;;;;26.33;20.52;;;;;;;;;;10129440;28;20075;-66
2022/12/30 18:22:36;;;;;;;22.65;17.30;;;;;;;;;;10119055;28;20126;-66
2022/12/30 18:27:30;;;;;;;24.73;19.80;;;;;;;;;;10109669;28;20072;-66
2022/12/30 18:32:24;;;;;;;24.65;19.58;;;;;;;;;;10113597;28;20131;-66
2022/12/30 18:37:18;;;;;;;24.30;20.10;;;;;;;;;;10122481;28;20429;-66
2022/12/30 18:42:11;;;;;;;22.33;19.98;;;;;;;;;;10107960;28;20076;-66
2022/12/30 18:47:05;;;;;;;24.63;19.70;;;;;;;;;;10125038;28;20041;-66
2022/12/30 18:51:58;;;;;;;27.23;21.02;;;;;;;;;;10116695;28;20099;-66
2022/12/30 18:56:52;;;;;;;28.35;22.40;;;;;;;;;;10108904;28;20543;-66
2022/12/30 19:01:46;;;;;;;28.48;20.90;;;;;;;;;;10106709;28;20049;-67
2022/12/30 19:06:43;;;;;;;27.13;21.38;;;;;;;;;;10100175;28;20049;-67
2022/12/30 19:11:37;;;;;;;27.67;20.65;;;;;;;;;;10129948;28;20048;-66
2022/12/30 19:16:39;;;;;;;27.73;22.70;;;;;;;;;;10131797;28;20057;-66
2022/12/30 19:21:36;;;;;;;29.73;23.73;;;;;;;;;;10125092;28;20056;-66
2022/12/30 19:26:30;;;;;;;22.95;18.65;;;;;;;;;;10123290;28;20106;-65
2022/12/30 19:31:26;;;;;;;26.17;20.30;;;;;;;;;;10130056;28;20052;-67
2022/12/30 19:36:21;;;;;;;25.55;22.45;;;;;;;;;;10118451;28;20070;-64
2022/12/30 19:41:42;;;;;;;31.10;22.65;;;;;;;;;;10119718;28;20693;-64
2022/12/30 19:46:36;;;;;;;29.80;21.88;;;;;;;;;;10103237;28;20045;-64
2022/12/30 19:51:30;;;;;;;24.92;19.58;;;;;;;;;;10106521;28;20071;-64
2022/12/30 19:56:24;;;;;;;26.50;20.58;;;;;;;;;;10120384;28;20420;-64
2022/12/30 20:01:25;;;;;;;23.38;20.50;;;;;;;;;;10122439;28;20048;-65
2022/12/30 20:06:20;;;;;;;26.70;19.48;;;;;;;;;;10115610;28;20413;-64
2022/12/30 20:11:17;;;;;;;26.15;22.00;;;;;;;;;;10119133;28;20528;-66
2022/12/30 20:16:33;;;;;;;22.48;20.15;;;;;;;;;;10130446;28;20044;-67
2022/12/30 20:21:30;;;;;;;24.65;20.45;;;;;;;;;;10124883;28;20466;-65
2022/12/30 20:26:28;;;;;;;24.02;17.85;;;;;;;;;;10122094;28;20052;-67
2022/12/30 20:31:47;;;;;;;23.58;19.08;;;;;;;;;;10106415;28;20056;-65
2022/12/30 20:36:40;;;;;;;26.88;19.75;;;;;;;;;;10116220;28;20049;-65
2022/12/30 20:41:34;;;;;;;23.00;19.58;;;;;;;;;;10118269;28;20045;-64
2022/12/30 20:46:32;;;;;;;21.55;18.58;;;;;;;;;;10112270;28;20106;-65
2022/12/30 20:51:25;;;;;;;26.70;21.90;;;;;;;;;;10123775;28;20114;-64
2022/12/30 20:56:22;;;;;;;30.40;24.75;;;;;;;;;;10124672;28;20501;-65
2022/12/30 21:01:18;;;;;;;30.45;22.98;;;;;;;;;;10130533;28;20044;-65
2022/12/30 21:06:13;;;;;;;30.48;22.80;;;;;;;;;;10136860;28;20048;-65
2022/12/30 21:11:07;;;;;;;33.80;24.20;;;;;;;;;;10126467;28;20136;-63
2022/12/30 21:16:01;;;;;;;31.58;22.98;;;;;;;;;;10124527;28;20072;-63
2022/12/30 21:20:55;;;;;;;38.28;24.23;;;;;;;;;;10143910;28;20100;-63
2022/12/30 21:26:04;;;;;;;40.22;26.55;;;;;;;;;;10138610;28;20070;-63
2022/12/30 21:30:57;;;;;;;35.65;27.67;;;;;;;;;;10124622;28;20048;-63
2022/12/30 21:35:51;;;;;;;46.20;29.55;;;;;;;;;;10129265;28;20072;-62
2022/12/30 22:07:08;;;;;;;45.13;27.63;;;;;;;;;;10103192;28;20502;-65
2022/12/30 22:12:02;;;;;;;46.97;28.50;;;;;;;;;;10103518;28;20049;-65
2022/12/30 22:16:55;;;;;;;50.15;28.40;;;;;;;;;;10112274;28;20055;-64
2022/12/30 22:21:49;;;;;;;47.08;26.77;;;;;;;;;;10112467;28;20051;-65
2022/12/30 22:26:43;;;;;;;48.10;29.33;;;;;;;;;;10106219;28;20045;-66
2022/12/30 22:31:37;;;;;;;43.67;28.50;;;;;;;;;;10105385;28;20045;-65
2022/12/30 22:36:31;;;;;;;51.88;31.48;;;;;;;;;;10124484;28;20052;-66
2022/12/30 22:41:44;;;;;;;47.33;29.33;;;;;;;;;;10095439;28;20041;-66
2022/12/30 22:46:38;;;;;;;45.55;27.67;;;;;;;;;;10107352;28;20068;-66
2022/12/30 22:51:32;;;;;;;45.38;29.75;;;;;;;;;;10114060;28;20053;-67
2022/12/30 22:56:25;;;;;;;65.03;34.50;;;;;;;;;;10105578;28;20485;-66
2022/12/30 23:01:21;;;;;;;69.97;35.65;;;;;;;;;;10107949;28;20057;-66
2022/12/30 23:06:16;;;;;;;70.88;36.15;;;;;;;;;;10111451;28;20136;-66
2022/12/30 23:11:12;;;;;;;79.82;42.15;;;;;;;;;;10124566;28;20462;-67
2022/12/30 23:16:07;;;;;;;85.60;43.33;;;;;;;;;;10121109;28;20056;-65
2022/12/30 23:21:15;;;;;;;84.00;47.10;;;;;;;;;;10113298;28;20052;-66
2022/12/30 23:26:09;;;;;;;81.78;41.97;;;;;;;;;;10099480;28;20409;-65
2022/12/30 23:31:03;;;;;;;84.63;45.83;;;;;;;;;;10107715;28;20048;-65
2022/12/30 23:36:12;;;;;;;80.72;42.00;;;;;;;;;;10104936;28;20080;-65
2022/12/30 23:41:06;;;;;;;81.93;40.42;;;;;;;;;;10107915;28;20072;-65
2022/12/30 23:45:59;;;;;;;94.15;47.63;;;;;;;;;;10097551;28;20091;-65
2022/12/30 23:50:53;;;;;;;84.70;44.25;;;;;;;;;;10108616;28;20111;-65
2022/12/30 23:55:46;;;;;;;85.75;43.13;;;;;;;;;;10101575;28;20044;-65
